Main page
METAR-TAF:

METAR-TAF

Airports :

Vigo, Spain

Vigo–Peinador Airport

latitude: 42-13N, longitude: 008-38W, elevation: 264 m

Current weather observation

The report was made 19 minutes ago, at 08:30 UTC
Wind 6 kt from the South, varying between East and Southwest
Temperature 20°C
Humidity 68%
Pressure 1014 hPa
Visibility 10 km or more
Scattered clouds at a height of 1900 ft

METAR: LEVX 260830Z 17006KT 090V230 9999 SCT019 20/14 Q1014 NOSIG

Time: 10:49 (08:49 UTC)


TAF: missing

Weather observations and forecasts of more than 4000 airports (METAR and TAF reports).

The available stations are represented by yellow and red dots on the map.

Hover mouse over dot to see the name of the station.

Then click to see weather observations and forecasts.

To change the map : click on the green buttons with a black cross to zoom in, on the green button with a dash to zoom out, or on the green arrows for adjacent maps.


METAR-TAF: